createdAt,value
2023-05-22T00:01:32.420Z,15.55
2023-05-22T00:03:36.531Z,15.62
2023-05-22T00:05:41.108Z,15.57
2023-05-22T00:07:43.929Z,15.62
2023-05-22T00:09:46.619Z,15.51
2023-05-22T00:11:50.756Z,15.46
2023-05-22T00:13:53.469Z,15.33
2023-05-22T00:15:56.454Z,15.26
2023-05-22T00:17:59.327Z,15.43
2023-05-22T00:20:08.507Z,15.42
2023-05-22T00:22:11.264Z,15.30
2023-05-22T00:24:13.953Z,15.19
2023-05-22T00:26:17.293Z,15.23
2023-05-22T00:28:21.689Z,15.24
2023-05-22T00:30:24.346Z,15.16
2023-05-22T00:32:27.134Z,15.18
2023-05-22T00:34:29.911Z,15.26
2023-05-22T00:36:32.783Z,15.34
2023-05-22T00:38:37.613Z,15.37
2023-05-22T00:40:40.468Z,15.25
2023-05-22T00:42:44.504Z,15.39
2023-05-22T00:44:49.818Z,15.37
2023-05-22T00:46:52.833Z,15.36
2023-05-22T00:48:55.653Z,15.32
2023-05-22T00:51:00.600Z,15.17
2023-05-22T00:53:03.667Z,15.19
2023-05-22T00:55:08.823Z,15.24
2023-05-22T00:57:11.904Z,15.28
2023-05-22T00:59:14.775Z,15.18
2023-05-22T01:01:18.991Z,15.19
2023-05-22T01:03:27.036Z,15.26
2023-05-22T01:05:30.099Z,15.14
2023-05-22T01:07:34.223Z,14.93
2023-05-22T01:09:36.870Z,15.06
2023-05-22T01:11:50.587Z,15.08
2023-05-22T01:14:01.887Z,14.85
2023-05-22T01:16:14.261Z,14.68
2023-05-22T01:18:29.352Z,14.78
2023-05-22T01:20:37.018Z,14.66
2023-05-22T01:23:14.101Z,14.70
2023-05-22T01:25:37.196Z,14.58
2023-05-22T01:28:03.960Z,14.47
2023-05-22T01:30:47.809Z,14.43
2023-05-22T01:32:51.218Z,14.62
2023-05-22T01:34:57.353Z,14.63
2023-05-22T01:37:01.268Z,14.68
2023-05-22T01:39:06.180Z,14.52
2023-05-22T01:41:08.948Z,14.49
2023-05-22T01:43:11.853Z,14.40
2023-05-22T01:45:15.605Z,14.42
2023-05-22T01:47:19.590Z,14.39
2023-05-22T01:49:22.541Z,14.29
2023-05-22T01:51:34.758Z,14.50
2023-05-22T01:53:42.954Z,14.46
2023-05-22T01:55:50.438Z,14.37
2023-05-22T01:57:59.178Z,14.35
2023-05-22T02:00:09.977Z,14.23
2023-05-22T02:02:14.499Z,14.26
2023-05-22T02:04:21.461Z,14.17
2023-05-22T02:06:26.743Z,14.23
2023-05-22T02:08:30.903Z,14.21
2023-05-22T02:10:35.055Z,14.37
2023-05-22T02:12:38.579Z,14.35
2023-05-22T02:14:43.324Z,14.35
2023-05-22T02:16:48.881Z,14.36
2023-05-22T02:18:54.106Z,14.41
2023-05-22T02:20:58.394Z,14.43
2023-05-22T02:23:01.194Z,14.53
2023-05-22T02:25:04.094Z,14.52
2023-05-22T02:27:07.254Z,14.25
2023-05-22T02:29:09.947Z,14.25
2023-05-22T02:31:12.663Z,14.32
2023-05-22T02:33:17.994Z,14.42
2023-05-22T02:35:20.686Z,14.48
2023-05-22T02:37:24.678Z,14.54
2023-05-22T02:39:27.457Z,14.55
2023-05-22T02:41:30.353Z,14.45
2023-05-22T02:43:33.015Z,14.52
2023-05-22T02:45:35.691Z,14.59
2023-05-22T02:47:38.392Z,14.62
2023-05-22T02:49:41.366Z,14.71
2023-05-22T02:51:47.895Z,14.82
2023-05-22T02:53:54.251Z,14.76
2023-05-22T02:55:58.786Z,14.85
2023-05-22T02:58:01.777Z,14.76
2023-05-22T03:00:06.853Z,14.77
2023-05-22T03:02:09.715Z,14.79
2023-05-22T03:04:13.976Z,14.76
2023-05-22T03:06:16.868Z,14.69
2023-05-22T03:08:19.636Z,14.65
2023-05-22T03:10:23.975Z,14.70
2023-05-22T03:12:26.627Z,14.74
2023-05-22T03:14:29.986Z,14.60
2023-05-22T03:16:34.443Z,14.72
2023-05-22T03:18:37.312Z,15.07
2023-05-22T03:20:40.185Z,14.99
2023-05-22T03:22:43.362Z,14.78
2023-05-22T03:24:46.119Z,14.64
2023-05-22T03:26:50.135Z,14.32
2023-05-22T03:28:52.997Z,14.34
2023-05-22T03:30:55.718Z,14.30
2023-05-22T03:32:58.514Z,14.41
2023-05-22T03:35:01.302Z,14.26
2023-05-22T03:37:04.064Z,13.97
2023-05-22T03:39:06.890Z,13.67
2023-05-22T03:41:09.647Z,13.82
2023-05-22T03:43:13.731Z,13.80
2023-05-22T03:45:16.840Z,13.77
2023-05-22T03:47:19.547Z,13.97
2023-05-22T03:49:22.350Z,14.04
2023-05-22T03:51:25.114Z,14.02
2023-05-22T03:53:27.814Z,14.03
2023-05-22T03:55:31.435Z,14.03
2023-05-22T03:57:34.157Z,14.06
2023-05-22T03:59:38.219Z,13.99
2023-05-22T04:01:41.187Z,14.07
2023-05-22T04:03:43.861Z,14.15
2023-05-22T04:05:46.642Z,14.34
2023-05-22T04:07:49.256Z,14.43
2023-05-22T04:09:51.999Z,14.23
2023-05-22T04:11:55.890Z,14.32
2023-05-22T04:14:03.885Z,14.32
2023-05-22T04:16:08.520Z,14.37
2023-05-22T04:18:11.901Z,14.39
2023-05-22T04:20:14.731Z,14.38
2023-05-22T04:22:17.498Z,14.37
2023-05-22T04:24:22.936Z,14.50
2023-05-22T04:26:26.137Z,14.89
2023-05-22T04:28:30.253Z,15.14
2023-05-22T04:30:34.527Z,15.05
2023-05-22T04:32:38.569Z,15.39
2023-05-22T04:34:42.179Z,15.42
2023-05-22T04:36:47.062Z,15.69
2023-05-22T04:38:50.374Z,16.28
2023-05-22T04:40:54.186Z,16.32
2023-05-22T04:45:37.454Z,17.12
2023-05-22T04:47:42.535Z,18.13
2023-05-22T04:49:46.272Z,17.52
2023-05-22T04:51:49.019Z,17.82
2023-05-22T04:53:51.957Z,18.41
2023-05-22T04:55:54.759Z,18.05
2023-05-22T04:57:57.412Z,17.97
2023-05-22T05:00:00.046Z,18.27
2023-05-22T05:02:02.821Z,17.75
2023-05-22T05:04:07.004Z,18.01
2023-05-22T05:06:09.807Z,18.40
2023-05-22T05:08:12.634Z,18.72
2023-05-22T05:10:15.355Z,18.46
2023-05-22T05:12:18.370Z,18.30
2023-05-22T05:14:21.060Z,18.31
2023-05-22T05:16:25.064Z,17.99
2023-05-22T05:18:28.315Z,19.07
2023-05-22T05:20:32.414Z,20.35
2023-05-22T05:22:35.847Z,20.11
2023-05-22T05:24:38.537Z,19.76
2023-05-22T05:26:41.287Z,19.57
2023-05-22T05:28:44.100Z,19.75
2023-05-22T05:30:46.751Z,18.72
2023-05-22T05:32:49.488Z,19.28
2023-05-22T05:34:52.431Z,19.47
2023-05-22T05:36:57.203Z,19.13
2023-05-22T05:39:00.525Z,18.78
2023-05-22T05:41:03.164Z,18.81
2023-05-22T05:43:08.546Z,19.20
2023-05-22T05:45:12.780Z,18.86
2023-05-22T05:47:15.571Z,19.11
2023-05-22T05:49:18.258Z,19.00
2023-05-22T05:51:22.094Z,19.54
2023-05-22T05:53:26.428Z,19.41
2023-05-22T05:55:29.112Z,19.33
2023-05-22T05:57:32.409Z,19.45
2023-05-22T05:59:35.239Z,20.27
2023-05-22T06:01:39.866Z,19.72
2023-05-22T06:03:42.688Z,19.55
2023-05-22T06:05:46.152Z,19.66
2023-05-22T06:07:49.689Z,19.72
2023-05-22T06:09:53.675Z,19.83
2023-05-22T06:11:56.462Z,19.73
2023-05-22T06:13:59.510Z,19.68
2023-05-22T06:16:04.240Z,19.99
2023-05-22T06:18:09.138Z,20.84
2023-05-22T06:20:14.226Z,20.20
2023-05-22T06:22:16.960Z,20.65
2023-05-22T06:24:19.643Z,20.12
2023-05-22T06:26:25.919Z,20.59
2023-05-22T06:28:28.466Z,20.85
2023-05-22T06:30:39.648Z,20.35
2023-05-22T06:32:43.445Z,20.69
2023-05-22T06:34:48.378Z,21.39
2023-05-22T06:36:51.498Z,19.82
2023-05-22T06:38:55.021Z,21.26
2023-05-22T06:40:57.659Z,20.31
2023-05-22T06:43:02.589Z,20.32
2023-05-22T06:45:06.313Z,20.97
2023-05-22T06:47:09.549Z,22.17
2023-05-22T06:49:12.851Z,20.82
2023-05-22T06:51:15.534Z,20.22
2023-05-22T06:53:18.157Z,21.28
2023-05-22T06:55:20.829Z,20.71
2023-05-22T06:57:24.091Z,22.51
2023-05-22T06:59:28.127Z,21.92
2023-05-22T07:01:31.499Z,21.54
2023-05-22T07:03:34.284Z,23.11
2023-05-22T07:05:37.047Z,21.74
2023-05-22T07:07:39.793Z,21.40
2023-05-22T07:09:42.524Z,20.79
2023-05-22T07:11:45.281Z,21.50
2023-05-22T07:13:47.915Z,22.69
2023-05-22T07:15:52.133Z,21.90
2023-05-22T07:17:54.865Z,22.39
2023-05-22T07:19:57.550Z,22.19
2023-05-22T07:22:00.264Z,22.13
2023-05-22T07:24:08.013Z,22.02
2023-05-22T07:26:10.759Z,23.17
2023-05-22T07:28:13.570Z,25.43
2023-05-22T07:30:16.418Z,24.44
2023-05-22T07:32:20.435Z,23.18
2023-05-22T07:34:23.276Z,23.68
2023-05-22T07:36:26.033Z,24.20
2023-05-22T07:38:28.689Z,24.27
2023-05-22T07:40:31.358Z,23.58
2023-05-22T07:42:34.438Z,23.51
2023-05-22T07:44:37.320Z,23.76
2023-05-22T07:46:40.085Z,23.57
2023-05-22T07:48:44.609Z,24.54
2023-05-22T07:50:47.731Z,23.54
2023-05-22T07:52:50.482Z,24.73
2023-05-22T07:54:53.170Z,22.78
2023-05-22T07:56:56.126Z,22.27
2023-05-22T07:58:58.992Z,22.88
2023-05-22T08:01:02.551Z,22.91
2023-05-22T08:03:05.620Z,22.46
2023-05-22T08:05:11.131Z,22.03
2023-05-22T08:07:13.935Z,21.87
2023-05-22T08:09:16.700Z,21.02
2023-05-22T08:11:19.591Z,21.43
2023-05-22T08:13:23.719Z,21.62
2023-05-22T08:15:26.514Z,22.18
2023-05-22T08:17:29.377Z,22.44
2023-05-22T08:19:32.444Z,22.76
2023-05-22T08:21:37.428Z,22.31
2023-05-22T08:23:40.266Z,22.39
2023-05-22T08:25:43.896Z,22.07
2023-05-22T08:27:46.554Z,21.71
2023-05-22T08:29:49.657Z,21.90
2023-05-22T08:31:54.121Z,22.58
2023-05-22T08:34:02.191Z,22.37
2023-05-22T08:36:05.379Z,21.55
2023-05-22T08:38:09.391Z,22.75
2023-05-22T08:40:13.475Z,22.29
2023-05-22T08:42:16.248Z,22.31
2023-05-22T08:44:19.821Z,22.74
2023-05-22T08:46:26.283Z,23.38
2023-05-22T08:48:32.368Z,22.39
2023-05-22T08:50:41.303Z,22.21
2023-05-22T08:52:49.126Z,22.24
2023-05-22T08:54:56.183Z,21.56
2023-05-22T08:56:59.387Z,21.70
2023-05-22T08:59:02.959Z,22.84
2023-05-22T09:01:06.595Z,23.37
2023-05-22T09:03:10.132Z,23.68
2023-05-22T09:05:13.382Z,24.20
2023-05-22T09:07:16.028Z,26.15
2023-05-22T09:09:18.803Z,25.71
2023-05-22T09:11:23.524Z,24.62
2023-05-22T09:13:28.136Z,24.92
2023-05-22T09:15:32.326Z,23.56
2023-05-22T09:17:35.047Z,24.13
2023-05-22T09:19:38.045Z,24.46
2023-05-22T09:21:40.783Z,27.53
2023-05-22T09:23:43.428Z,26.65
2023-05-22T09:25:46.538Z,27.17
2023-05-22T09:27:50.753Z,27.68
2023-05-22T09:29:56.737Z,29.01
2023-05-22T09:32:00.792Z,27.83
2023-05-22T09:34:03.558Z,28.18
2023-05-22T09:36:10.372Z,29.85
2023-05-22T09:38:13.708Z,28.14
2023-05-22T09:40:16.648Z,28.58
2023-05-22T09:42:19.447Z,26.61
2023-05-22T09:44:26.918Z,26.73
2023-05-22T09:46:30.081Z,26.55
2023-05-22T09:48:35.902Z,28.21
2023-05-22T09:50:40.140Z,27.50
2023-05-22T09:52:46.095Z,26.13
2023-05-22T09:54:54.868Z,26.21
2023-05-22T09:57:00.361Z,28.73
2023-05-22T09:59:03.336Z,28.03
2023-05-22T10:01:10.440Z,27.19
2023-05-22T10:03:15.314Z,26.79
2023-05-22T10:05:22.341Z,26.27
2023-05-22T10:07:27.969Z,28.92
2023-05-22T10:09:34.272Z,29.14
2023-05-22T10:11:38.058Z,30.47
2023-05-22T10:13:42.249Z,28.50
2023-05-22T10:15:45.289Z,26.81
2023-05-22T10:17:49.950Z,28.27
2023-05-22T10:19:53.897Z,28.42
2023-05-22T10:21:57.844Z,28.46
2023-05-22T10:24:02.103Z,26.76
2023-05-22T10:26:05.482Z,27.45
2023-05-22T10:28:09.847Z,26.41
2023-05-22T10:30:21.692Z,26.68
2023-05-22T10:32:28.489Z,25.38
2023-05-22T10:34:39.989Z,27.03
2023-05-22T10:37:00.431Z,27.58
2023-05-22T10:39:25.102Z,27.73
2023-05-22T10:41:27.906Z,27.71
2023-05-22T10:43:31.844Z,27.91
2023-05-22T10:45:34.607Z,27.47
2023-05-22T10:47:37.818Z,25.99
2023-05-22T10:49:45.223Z,26.63
2023-05-22T10:51:47.888Z,27.18
2023-05-22T10:53:54.184Z,26.29
2023-05-22T10:55:59.055Z,26.41
2023-05-22T10:58:14.068Z,26.56
2023-05-22T11:00:19.252Z,26.38
2023-05-22T11:02:23.207Z,26.06
2023-05-22T11:04:26.557Z,27.07
2023-05-22T11:06:42.417Z,26.85
2023-05-22T11:08:48.008Z,27.34
2023-05-22T11:10:54.970Z,26.73
2023-05-22T11:13:04.527Z,25.49
2023-05-22T11:15:08.921Z,26.00
2023-05-22T11:17:14.359Z,26.32
2023-05-22T11:21:23.326Z,25.62
2023-05-22T11:23:27.608Z,25.41
2023-05-22T11:25:30.826Z,26.14
2023-05-22T11:27:33.621Z,26.25
2023-05-22T11:29:37.436Z,25.97
2023-05-22T11:31:40.684Z,26.72
2023-05-22T11:33:43.578Z,26.09
2023-05-22T11:35:49.174Z,26.28
2023-05-22T11:37:53.856Z,25.79
2023-05-22T11:39:59.085Z,26.40
2023-05-22T11:42:04.512Z,25.97
2023-05-22T11:44:09.156Z,25.85
2023-05-22T11:46:12.751Z,26.64
2023-05-22T11:48:15.909Z,26.30
2023-05-22T11:52:24.800Z,26.20
2023-05-22T11:54:27.474Z,26.50
2023-05-22T11:56:31.536Z,27.17
2023-05-22T11:58:34.567Z,27.17
2023-05-22T12:00:37.577Z,26.61
2023-05-22T12:02:45.922Z,25.86
2023-05-22T12:04:48.610Z,26.50
2023-05-22T12:06:51.707Z,26.77
2023-05-22T12:08:54.931Z,27.24
2023-05-22T12:10:57.707Z,26.94
2023-05-22T12:13:01.879Z,26.71
2023-05-22T12:15:06.998Z,26.67
2023-05-22T12:17:12.817Z,26.68
2023-05-22T12:19:15.694Z,26.87
2023-05-22T12:21:19.977Z,26.62
2023-05-22T12:23:26.552Z,26.10
2023-05-22T12:25:36.515Z,27.19
2023-05-22T12:27:39.223Z,27.28
2023-05-22T12:29:44.288Z,27.11
2023-05-22T12:31:47.395Z,26.78
2023-05-22T12:33:50.146Z,26.56
2023-05-22T12:35:53.006Z,26.45
2023-05-22T12:37:55.816Z,26.70
2023-05-22T12:39:59.389Z,26.84
2023-05-22T12:42:02.154Z,27.34
2023-05-22T12:44:05.154Z,27.15
2023-05-22T12:46:09.233Z,26.13
2023-05-22T12:48:12.072Z,26.42
2023-05-22T12:50:14.984Z,26.30
2023-05-22T12:52:17.849Z,25.21
2023-05-22T12:54:20.553Z,25.38
2023-05-22T12:56:23.330Z,25.04
2023-05-22T12:58:26.084Z,25.53
2023-05-22T13:00:29.000Z,26.01
2023-05-22T13:02:33.153Z,26.59
2023-05-22T13:04:35.901Z,26.75
2023-05-22T13:06:38.644Z,26.61
2023-05-22T13:08:41.291Z,25.86
2023-05-22T13:10:44.056Z,26.47
2023-05-22T13:12:48.458Z,26.74
2023-05-22T13:14:51.196Z,26.37
2023-05-22T13:16:53.867Z,26.59
2023-05-22T13:18:57.908Z,27.18
2023-05-22T13:21:00.662Z,26.69
2023-05-22T13:23:03.372Z,26.88
2023-05-22T13:25:06.940Z,27.29
2023-05-22T13:27:09.607Z,27.20
2023-05-22T13:29:12.285Z,26.23
2023-05-22T13:31:15.141Z,26.59
2023-05-22T13:33:17.856Z,26.37
2023-05-22T13:35:22.160Z,27.01
2023-05-22T13:37:24.928Z,26.55
2023-05-22T13:39:27.720Z,26.11
2023-05-22T13:41:31.024Z,26.29
2023-05-22T13:43:33.794Z,25.66
2023-05-22T13:45:36.451Z,26.88
2023-05-22T13:47:39.264Z,27.03
2023-05-22T13:49:42.004Z,26.71
2023-05-22T13:51:46.187Z,26.82
2023-05-22T13:53:48.890Z,26.44
2023-05-22T13:55:51.737Z,26.37
2023-05-22T13:57:54.426Z,26.65
2023-05-22T13:59:57.100Z,25.60
2023-05-22T14:01:59.803Z,25.60
2023-05-22T14:04:02.500Z,26.12
2023-05-22T14:06:05.706Z,26.00
2023-05-22T14:08:09.748Z,25.60
2023-05-22T14:10:12.473Z,25.68
2023-05-22T14:12:15.191Z,25.63
2023-05-22T14:14:23.885Z,25.55
2023-05-22T14:16:26.729Z,25.46
2023-05-22T14:18:29.527Z,25.47
2023-05-22T14:20:32.210Z,25.31
2023-05-22T14:22:48.024Z,25.31
2023-05-22T14:24:58.992Z,25.20
2023-05-22T14:27:01.651Z,25.20
2023-05-22T14:29:04.331Z,25.30
2023-05-22T14:31:07.195Z,25.11
2023-05-22T14:33:09.932Z,25.00
2023-05-22T14:35:12.738Z,25.11
2023-05-22T14:37:15.498Z,24.80
2023-05-22T14:39:18.153Z,24.75
2023-05-22T14:41:22.285Z,24.86
2023-05-22T14:43:24.968Z,24.75
2023-05-22T14:45:27.637Z,24.70
2023-05-22T14:47:30.312Z,24.63
2023-05-22T14:49:33.208Z,24.24
2023-05-22T14:51:36.144Z,24.28
2023-05-22T14:53:38.854Z,24.23
2023-05-22T14:55:41.815Z,24.22
2023-05-22T14:57:46.124Z,24.03
2023-05-22T14:59:48.796Z,24.12
2023-05-22T15:01:52.359Z,24.14
2023-05-22T15:03:55.119Z,23.95
2023-05-22T15:05:57.935Z,23.69
2023-05-22T15:08:01.156Z,23.75
2023-05-22T15:10:04.039Z,23.46
2023-05-22T15:12:07.447Z,23.08
2023-05-22T15:14:11.488Z,22.83
2023-05-22T15:16:14.204Z,22.17
2023-05-22T15:18:17.073Z,21.81
2023-05-22T15:20:19.777Z,21.68
2023-05-22T15:22:22.419Z,21.37
2023-05-22T15:24:25.227Z,21.23
2023-05-22T15:26:27.899Z,21.11
2023-05-22T15:28:30.635Z,21.23
2023-05-22T15:30:36.435Z,21.03
2023-05-22T15:32:39.607Z,21.05
2023-05-22T15:34:42.285Z,20.88
2023-05-22T15:36:45.006Z,21.03
2023-05-22T15:38:47.755Z,20.93
2023-05-22T15:40:50.479Z,20.90
2023-05-22T15:42:53.511Z,21.10
2023-05-22T15:44:56.239Z,21.19
2023-05-22T15:47:00.356Z,20.98
2023-05-22T15:49:03.102Z,21.25
2023-05-22T15:51:09.573Z,21.26
2023-05-22T15:53:12.273Z,21.58
2023-05-22T15:55:15.096Z,21.66
2023-05-22T15:57:17.842Z,21.69
2023-05-22T15:59:20.535Z,21.35
2023-05-22T16:01:23.247Z,21.45
2023-05-22T16:03:27.434Z,21.77
2023-05-22T16:05:31.367Z,21.73
2023-05-22T16:07:34.055Z,21.96
2023-05-22T16:09:36.738Z,21.83
2023-05-22T16:11:39.478Z,22.00
2023-05-22T16:13:42.085Z,22.00
2023-05-22T16:15:45.131Z,22.07
2023-05-22T16:17:47.940Z,22.59
2023-05-22T16:19:52.004Z,22.66
2023-05-22T16:21:54.702Z,22.78
2023-05-22T16:23:57.538Z,22.47
2023-05-22T16:26:00.301Z,22.66
2023-05-22T16:28:03.046Z,22.68
2023-05-22T16:30:06.613Z,22.46
2023-05-22T16:32:09.295Z,22.44
2023-05-22T16:34:11.937Z,22.88
2023-05-22T16:36:15.981Z,22.73
2023-05-22T16:38:18.610Z,22.58
2023-05-22T16:42:25.308Z,22.72
2023-05-22T16:44:28.135Z,23.11
2023-05-22T16:46:30.948Z,22.88
2023-05-22T16:48:33.682Z,23.12
2023-05-22T16:50:36.398Z,23.08
2023-05-22T16:52:40.633Z,23.07
2023-05-22T16:54:43.290Z,22.65
2023-05-22T16:56:45.966Z,23.06
2023-05-22T16:58:48.644Z,22.85
2023-05-22T17:00:51.633Z,23.05
2023-05-22T17:02:55.799Z,23.26
2023-05-22T17:04:58.593Z,23.04
2023-05-22T17:07:01.321Z,22.85
2023-05-22T17:09:05.494Z,23.05
2023-05-22T17:11:08.232Z,22.93
2023-05-22T17:13:12.568Z,23.02
2023-05-22T17:15:15.568Z,23.25
2023-05-22T17:17:18.242Z,23.02
2023-05-22T17:19:21.463Z,23.14
2023-05-22T17:21:24.364Z,23.18
2023-05-22T17:23:27.191Z,23.11
2023-05-22T17:25:31.323Z,22.96
2023-05-22T17:27:36.573Z,22.92
2023-05-22T17:29:39.680Z,22.68
2023-05-22T17:31:42.424Z,22.53
2023-05-22T17:33:45.196Z,22.41
2023-05-22T17:35:47.892Z,22.57
2023-05-22T17:37:50.579Z,22.46
2023-05-22T17:39:53.336Z,22.58
2023-05-22T17:41:59.103Z,22.33
2023-05-22T17:44:02.939Z,22.19
2023-05-22T17:46:06.270Z,22.15
2023-05-22T17:48:08.990Z,22.18
2023-05-22T17:50:12.609Z,21.99
2023-05-22T17:52:15.345Z,21.71
2023-05-22T17:54:18.073Z,21.84
2023-05-22T17:56:20.787Z,21.98
2023-05-22T17:58:24.803Z,21.93
2023-05-22T18:00:27.499Z,21.93
2023-05-22T18:02:30.361Z,21.97
2023-05-22T18:04:33.135Z,22.01
2023-05-22T18:06:35.867Z,21.90
2023-05-22T18:08:39.959Z,21.89
2023-05-22T18:10:42.900Z,21.80
2023-05-22T18:12:45.796Z,21.75
2023-05-22T18:14:49.846Z,21.71
2023-05-22T18:16:52.529Z,21.74
2023-05-22T18:18:55.252Z,21.68
2023-05-22T18:20:59.428Z,21.59
2023-05-22T18:23:02.077Z,21.61
2023-05-22T18:25:05.057Z,21.27
2023-05-22T18:27:07.909Z,21.44
2023-05-22T18:29:11.077Z,21.35
2023-05-22T18:31:15.636Z,21.27
2023-05-22T18:33:18.359Z,21.12
2023-05-22T18:35:21.092Z,21.18
2023-05-22T18:37:23.764Z,20.97
2023-05-22T18:39:26.511Z,20.76
2023-05-22T18:41:29.178Z,20.85
2023-05-22T18:43:31.929Z,20.98
2023-05-22T18:45:34.625Z,20.56
2023-05-22T18:47:38.743Z,20.54
2023-05-22T18:49:41.469Z,20.32
2023-05-22T18:51:44.209Z,20.26
2023-05-22T18:53:47.054Z,20.18
2023-05-22T18:55:50.024Z,20.14
2023-05-22T18:57:52.677Z,20.21
2023-05-22T18:59:55.380Z,20.12
2023-05-22T19:01:58.030Z,20.00
2023-05-22T19:04:02.101Z,19.87
2023-05-22T19:06:05.513Z,19.84
2023-05-22T19:08:08.180Z,19.83
2023-05-22T19:10:11.406Z,19.91
2023-05-22T19:12:14.100Z,19.88
2023-05-22T19:14:16.834Z,19.98
2023-05-22T19:16:19.589Z,19.82
2023-05-22T19:18:22.327Z,19.78
2023-05-22T19:20:26.354Z,19.77
2023-05-22T19:22:29.081Z,19.81
2023-05-22T19:24:31.740Z,19.84
2023-05-22T19:26:34.512Z,19.65
2023-05-22T19:28:37.299Z,19.76
2023-05-22T19:30:40.275Z,19.66
2023-05-22T19:32:43.371Z,19.64
2023-05-22T19:34:46.449Z,19.71
2023-05-22T19:36:51.632Z,19.40
2023-05-22T19:38:54.259Z,19.49
2023-05-22T19:40:56.907Z,19.44
2023-05-22T19:42:59.714Z,19.34
2023-05-22T19:45:03.334Z,19.36
2023-05-22T19:47:06.444Z,19.10
2023-05-22T19:49:09.184Z,18.76
2023-05-22T19:51:11.892Z,18.52
2023-05-22T19:53:15.970Z,18.44
2023-05-22T19:55:18.766Z,18.43
2023-05-22T19:57:21.460Z,18.39
2023-05-22T19:59:24.082Z,18.42
2023-05-22T20:01:26.818Z,18.51
2023-05-22T20:03:29.762Z,18.63
2023-05-22T20:05:32.492Z,18.67
2023-05-22T20:07:35.188Z,18.59
2023-05-22T20:09:39.335Z,18.68
2023-05-22T20:11:42.188Z,18.56
2023-05-22T20:13:44.872Z,18.52
2023-05-22T20:15:48.187Z,18.68
2023-05-22T20:17:52.982Z,18.63
2023-05-22T20:19:55.717Z,18.65
2023-05-22T20:21:59.266Z,18.62
2023-05-22T20:24:04.866Z,18.64
2023-05-22T20:26:08.859Z,18.49
2023-05-22T20:28:11.689Z,18.42
2023-05-22T20:30:14.799Z,18.29
2023-05-22T20:32:17.719Z,18.41
2023-05-22T20:34:20.582Z,18.42
2023-05-22T20:36:24.693Z,18.41
2023-05-22T20:38:28.465Z,18.28
2023-05-22T20:40:32.679Z,18.42
2023-05-22T20:42:37.380Z,18.39
2023-05-22T20:44:41.282Z,18.39
2023-05-22T20:46:44.013Z,18.40
2023-05-22T20:48:48.188Z,18.40
2023-05-22T20:50:51.230Z,18.37
2023-05-22T20:52:54.102Z,18.41
2023-05-22T20:54:56.977Z,18.43
2023-05-22T20:56:59.727Z,18.41
2023-05-22T20:59:03.824Z,18.38
2023-05-22T21:01:06.935Z,18.33
2023-05-22T21:03:09.700Z,18.37
2023-05-22T21:05:13.376Z,18.29
2023-05-22T21:07:16.195Z,18.23
2023-05-22T21:09:18.981Z,18.23
2023-05-22T21:11:21.656Z,18.13
2023-05-22T21:13:24.489Z,18.14
2023-05-22T21:15:28.594Z,18.10
2023-05-22T21:17:31.266Z,18.10
2023-05-22T21:19:34.073Z,18.20
2023-05-22T21:21:41.508Z,18.10
2023-05-22T21:23:44.421Z,17.94
2023-05-22T21:25:47.124Z,17.97
2023-05-22T21:27:49.923Z,17.95
2023-05-22T21:29:52.562Z,17.90
2023-05-22T21:31:56.690Z,17.93
2023-05-22T21:33:59.423Z,18.00
2023-05-22T21:36:02.254Z,17.94
2023-05-22T21:38:04.957Z,17.88
2023-05-22T21:40:09.125Z,17.91
2023-05-22T21:42:11.847Z,17.80
2023-05-22T21:44:14.769Z,17.76
2023-05-22T21:46:17.666Z,17.82
2023-05-22T21:48:21.688Z,17.72
2023-05-22T21:50:24.399Z,17.71
2023-05-22T21:52:28.629Z,17.73
2023-05-22T21:54:31.822Z,17.80
2023-05-22T21:56:34.469Z,17.74
2023-05-22T21:58:37.166Z,17.67
2023-05-22T22:00:40.218Z,17.75
2023-05-22T22:02:43.229Z,17.78
2023-05-22T22:04:47.416Z,17.77
2023-05-22T22:06:50.143Z,17.94
2023-05-22T22:08:53.355Z,17.92
2023-05-22T22:10:56.406Z,17.94
2023-05-22T22:12:59.138Z,17.90
2023-05-22T22:15:02.281Z,17.95
2023-05-22T22:17:07.795Z,17.88
2023-05-22T22:19:11.524Z,17.83
2023-05-22T22:21:15.791Z,17.88
2023-05-22T22:23:18.433Z,17.96
2023-05-22T22:25:21.363Z,17.90
2023-05-22T22:27:25.044Z,17.86
2023-05-22T22:29:27.750Z,17.88
2023-05-22T22:31:30.484Z,17.80
2023-05-22T22:33:33.495Z,17.82
2023-05-22T22:35:36.247Z,17.79
2023-05-22T22:37:40.332Z,17.87
2023-05-22T22:39:43.001Z,17.79
2023-05-22T22:41:45.698Z,17.78
2023-05-22T22:43:48.442Z,17.78
2023-05-22T22:45:51.212Z,17.71
2023-05-22T22:47:56.499Z,17.67
2023-05-22T22:49:59.372Z,17.77
2023-05-22T22:52:02.030Z,17.64
2023-05-22T22:54:06.246Z,17.50
2023-05-22T22:56:09.153Z,17.52
2023-05-22T22:58:11.918Z,17.46
2023-05-22T23:00:16.137Z,17.59
2023-05-22T23:02:18.909Z,17.58
2023-05-22T23:04:21.729Z,17.57
2023-05-22T23:06:26.645Z,17.49
2023-05-22T23:08:29.270Z,17.58
2023-05-22T23:10:33.337Z,17.59
2023-05-22T23:12:36.216Z,17.59
2023-05-22T23:14:39.167Z,17.56
2023-05-22T23:16:41.859Z,17.74
2023-05-22T23:18:44.664Z,17.71
2023-05-22T23:20:47.380Z,17.64
2023-05-22T23:22:50.054Z,17.54
2023-05-22T23:24:52.820Z,17.57
2023-05-22T23:26:56.865Z,17.61
2023-05-22T23:28:59.924Z,17.58
2023-05-22T23:31:02.765Z,17.47
2023-05-22T23:33:06.087Z,17.54
2023-05-22T23:35:11.154Z,17.44
2023-05-22T23:37:14.018Z,17.44
2023-05-22T23:39:16.761Z,17.45
2023-05-22T23:41:19.556Z,17.35
2023-05-22T23:43:23.814Z,17.33
2023-05-22T23:45:26.640Z,17.42
2023-05-22T23:47:29.404Z,17.35
2023-05-22T23:49:32.132Z,17.19
2023-05-22T23:51:34.989Z,17.34
2023-05-22T23:53:37.871Z,17.37
2023-05-22T23:55:40.846Z,17.40
2023-05-22T23:57:43.898Z,17.33
2023-05-22T23:59:47.996Z,17.08
